createdAt,value
2019-04-05T00:00:15.127Z,14.13
2019-04-05T00:02:43.571Z,11.83
2019-04-05T00:05:12.446Z,16.93
2019-04-05T00:07:40.910Z,20.03
2019-04-05T00:10:10.411Z,15.00
2019-04-05T00:12:38.861Z,16.40
2019-04-05T00:15:15.026Z,14.43
2019-04-05T00:17:37.734Z,18.80
2019-04-05T00:20:08.375Z,17.67
2019-04-05T00:22:36.858Z,21.90
2019-04-05T00:25:06.638Z,13.27
2019-04-05T00:27:35.080Z,19.37
2019-04-05T00:30:04.519Z,15.73
2019-04-05T00:32:32.985Z,15.43
2019-04-05T00:35:01.455Z,14.37
2019-04-05T00:37:29.900Z,13.10
2019-04-05T00:39:58.327Z,15.40
2019-04-05T00:42:26.806Z,20.07
2019-04-05T00:44:55.272Z,21.20
2019-04-05T00:47:23.706Z,21.67
2019-04-05T00:49:52.177Z,19.67
2019-04-05T00:52:20.627Z,17.50
2019-04-05T00:54:49.117Z,14.80
2019-04-05T00:57:17.577Z,23.93
2019-04-05T00:59:46.057Z,16.40
2019-04-05T01:02:14.523Z,16.17
2019-04-05T01:04:42.972Z,22.67
2019-04-05T01:07:11.482Z,15.37
2019-04-05T01:09:39.954Z,17.50
2019-04-05T01:12:08.441Z,21.17
2019-04-05T01:14:38.014Z,18.20
2019-04-05T01:17:06.465Z,17.67
2019-04-05T01:19:35.507Z,20.90
2019-04-05T01:22:05.833Z,22.07
2019-04-05T01:24:34.632Z,14.93
2019-04-05T01:27:05.133Z,16.20
2019-04-05T01:29:33.625Z,15.97
2019-04-05T01:32:02.084Z,19.40
2019-04-05T01:34:30.619Z,21.90
2019-04-05T01:36:59.401Z,22.47
2019-04-05T01:39:27.831Z,14.87
2019-04-05T01:41:56.531Z,18.43
2019-04-05T01:44:25.670Z,19.63
2019-04-05T01:46:54.093Z,18.20
2019-04-05T01:49:22.548Z,17.53
2019-04-05T01:51:51.000Z,15.53
2019-04-05T01:54:19.481Z,17.00
2019-04-05T01:56:48.709Z,20.57
2019-04-05T01:59:17.176Z,23.67
2019-04-05T02:01:45.691Z,19.47
2019-04-05T02:04:14.133Z,22.30
2019-04-05T02:06:43.240Z,21.67
2019-04-05T02:09:12.441Z,18.70
2019-04-05T02:11:40.964Z,18.63
2019-04-05T02:14:09.476Z,21.40
2019-04-05T02:16:37.949Z,18.53
2019-04-05T02:19:06.485Z,14.93
2019-04-05T02:21:34.945Z,18.77
2019-04-05T02:24:03.418Z,22.10
2019-04-05T02:26:31.868Z,18.60
2019-04-05T02:29:00.340Z,17.97
2019-04-05T02:31:28.775Z,20.63
2019-04-05T02:33:57.309Z,17.33
2019-04-05T02:36:25.792Z,15.10
2019-04-05T02:38:54.214Z,17.70
2019-04-05T02:41:25.717Z,17.50
2019-04-05T02:43:56.081Z,19.77
2019-04-05T02:46:26.347Z,15.83
2019-04-05T02:48:55.950Z,20.63
2019-04-05T02:51:26.089Z,17.53
2019-04-05T02:53:57.451Z,19.57
2019-04-05T02:56:27.801Z,21.47
2019-04-05T02:58:56.501Z,22.77
2019-04-05T03:01:25.199Z,19.63
2019-04-05T03:03:53.674Z,23.43
2019-04-05T03:06:22.332Z,19.90
2019-04-05T03:08:51.756Z,22.40
2019-04-05T03:11:22.308Z,21.70
2019-04-05T03:13:54.188Z,23.27
2019-04-05T03:16:40.095Z,21.63
2019-04-05T03:19:08.093Z,19.03
2019-04-05T03:21:39.607Z,17.57
2019-04-05T03:24:10.332Z,23.57
2019-04-05T03:26:41.832Z,19.67
2019-04-05T03:29:10.944Z,19.23
2019-04-05T03:31:39.733Z,22.97
2019-04-05T03:34:08.931Z,25.60
2019-04-05T03:36:38.394Z,19.43
2019-04-05T03:39:07.466Z,25.13
2019-04-05T03:41:36.678Z,19.83
2019-04-05T03:44:06.265Z,21.33
2019-04-05T03:46:34.808Z,19.77
2019-04-05T03:49:05.001Z,20.87
2019-04-05T03:51:33.993Z,18.63
2019-04-05T03:54:02.714Z,17.60
2019-04-05T03:56:31.722Z,20.73
2019-04-05T03:59:00.330Z,20.13
2019-04-05T04:01:28.863Z,23.70
2019-04-05T04:03:57.489Z,28.13
2019-04-05T04:06:25.951Z,21.87
2019-04-05T04:08:54.448Z,20.23
2019-04-05T04:11:22.887Z,22.13
2019-04-05T04:13:51.492Z,25.27
2019-04-05T04:16:20.186Z,23.60
2019-04-05T04:18:49.390Z,16.87
2019-04-05T04:21:29.689Z,28.30
2019-04-05T04:23:58.591Z,19.93
2019-04-05T04:26:27.295Z,22.27
2019-04-05T04:28:55.811Z,24.70
2019-04-05T04:31:24.638Z,26.43
2019-04-05T04:33:53.671Z,22.00
2019-04-05T04:36:22.379Z,25.13
2019-04-05T04:38:51.316Z,20.67
2019-04-05T04:41:19.803Z,22.30
2019-04-05T04:43:48.698Z,33.70
2019-04-05T04:46:17.233Z,27.40
2019-04-05T04:48:45.743Z,21.30
2019-04-05T04:51:14.541Z,20.90
2019-04-05T04:53:43.662Z,19.43
2019-04-05T04:56:12.301Z,24.13
2019-04-05T04:58:40.762Z,23.40
2019-04-05T05:01:09.565Z,22.47
2019-04-05T05:03:38.379Z,24.23
2019-04-05T05:06:07.534Z,22.67
2019-04-05T05:08:36.057Z,23.37
2019-04-05T05:11:14.494Z,27.53
2019-04-05T05:13:35.431Z,27.47
2019-04-05T05:16:04.101Z,25.83
2019-04-05T05:18:32.719Z,22.33
2019-04-05T05:21:01.357Z,34.43
2019-04-05T05:23:30.075Z,26.47
2019-04-05T05:25:58.984Z,29.33
2019-04-05T05:28:27.483Z,55.30
2019-04-05T05:30:56.309Z,84.17
2019-04-05T05:33:24.906Z,28.80
2019-04-05T05:35:53.353Z,28.57
2019-04-05T05:38:21.923Z,28.47
2019-04-05T05:40:50.378Z,33.27
2019-04-05T05:43:18.879Z,37.40
2019-04-05T05:45:47.353Z,26.33
2019-04-05T05:48:16.549Z,27.33
2019-04-05T05:50:45.088Z,26.00
2019-04-05T05:53:13.823Z,39.87
2019-04-05T05:55:42.283Z,20.63
2019-04-05T05:58:10.767Z,26.83
2019-04-05T06:00:39.287Z,22.90
2019-04-05T06:03:10.807Z,23.97
2019-04-05T06:05:37.918Z,26.43
2019-04-05T06:08:06.399Z,23.70
2019-04-05T06:10:34.841Z,23.53
2019-04-05T06:13:06.664Z,24.07
2019-04-05T06:15:33.497Z,21.00
2019-04-05T06:18:04.781Z,28.60
2019-04-05T06:20:32.127Z,30.87
2019-04-05T06:23:00.601Z,34.20
2019-04-05T06:25:29.054Z,33.27
2019-04-05T06:27:59.807Z,28.33
2019-04-05T06:32:57.949Z,37.47
2019-04-05T06:35:26.405Z,43.83
2019-04-05T06:35:39.483Z,30.23
2019-04-05T06:37:54.854Z,37.80
2019-04-05T06:40:23.335Z,47.43
2019-04-05T06:42:51.809Z,43.33
2019-04-05T06:45:20.293Z,49.83
2019-04-05T06:47:48.773Z,46.97
2019-04-05T06:50:17.354Z,46.60
2019-04-05T06:52:45.840Z,52.50
2019-04-05T06:55:14.293Z,51.53
2019-04-05T06:57:42.772Z,48.73
2019-04-05T07:00:11.267Z,53.33
2019-04-05T07:02:39.740Z,47.13
2019-04-05T07:05:08.541Z,55.97
2019-04-05T07:07:37.025Z,55.07
2019-04-05T07:10:06.238Z,58.20
2019-04-05T07:12:34.709Z,53.47
2019-04-05T07:15:03.363Z,54.43
2019-04-05T07:17:31.847Z,50.37
2019-04-05T07:20:00.391Z,54.77
2019-04-05T07:22:38.463Z,63.47
2019-04-05T07:24:59.033Z,62.33
2019-04-05T07:27:27.558Z,56.17
2019-04-05T07:29:56.049Z,56.63
2019-04-05T07:32:24.507Z,58.40
2019-04-05T07:34:52.952Z,58.77
2019-04-05T07:37:21.407Z,62.93
2019-04-05T07:39:49.902Z,58.03
2019-04-05T07:42:18.390Z,55.30
2019-04-05T07:44:46.846Z,59.40
2019-04-05T07:47:15.318Z,60.20
2019-04-05T07:49:43.789Z,56.33
2019-04-05T07:52:13.182Z,59.60
2019-04-05T07:54:41.701Z,53.90
2019-04-05T07:57:10.240Z,57.57
2019-04-05T07:59:38.671Z,51.27
2019-04-05T08:02:07.131Z,57.17
2019-04-05T08:04:35.584Z,60.73
2019-04-05T08:07:05.595Z,59.53
2019-04-05T08:09:36.880Z,58.83
2019-04-05T08:12:06.153Z,67.03
2019-04-05T08:14:37.323Z,59.27
2019-04-05T08:17:05.787Z,60.33
2019-04-05T08:19:34.226Z,61.87
2019-04-05T08:22:02.713Z,58.47
2019-04-05T08:24:31.170Z,64.13
2019-04-05T08:26:59.626Z,72.27
2019-04-05T08:29:28.093Z,63.17
2019-04-05T08:31:56.531Z,59.63
2019-04-05T08:34:24.983Z,58.07
2019-04-05T08:36:53.449Z,72.20
2019-04-05T08:39:21.883Z,61.43
2019-04-05T08:41:50.366Z,62.97
2019-04-05T08:44:18.809Z,69.30
2019-04-05T08:46:47.292Z,61.50
2019-04-05T08:49:15.768Z,64.53
2019-04-05T08:51:44.210Z,72.50
2019-04-05T08:54:12.683Z,66.47
2019-04-05T08:56:41.261Z,70.07
2019-04-05T08:59:09.723Z,67.83
2019-04-05T09:01:38.193Z,73.83
2019-04-05T09:04:06.641Z,83.57
2019-04-05T09:06:35.109Z,75.73
2019-04-05T09:09:05.638Z,79.40
2019-04-05T09:11:34.180Z,82.47
2019-04-05T09:14:02.617Z,85.27
2019-04-05T09:16:31.062Z,75.03
2019-04-05T09:18:59.543Z,77.07
2019-04-05T09:21:28.032Z,75.33
2019-04-05T09:23:59.084Z,73.90
2019-04-05T09:26:26.640Z,82.27
2019-04-05T09:28:55.099Z,82.53
2019-04-05T09:31:23.558Z,88.33
2019-04-05T09:33:51.986Z,78.73
2019-04-05T09:36:20.464Z,84.50
2019-04-05T09:38:49.766Z,84.37
2019-04-05T09:41:18.236Z,94.97
2019-04-05T09:43:46.707Z,86.60
2019-04-05T09:46:15.156Z,104.53
2019-04-05T09:48:43.598Z,87.50
2019-04-05T09:51:12.056Z,95.87
2019-04-05T09:53:40.525Z,87.57
2019-04-05T09:56:08.967Z,83.77
2019-04-05T09:58:37.782Z,89.60
2019-04-05T10:01:06.332Z,87.83
2019-04-05T10:03:34.810Z,95.57
2019-04-05T10:06:03.629Z,81.53
2019-04-05T10:08:32.063Z,90.93
2019-04-05T10:11:00.895Z,92.30
2019-04-05T10:13:29.360Z,97.40
2019-04-05T10:15:57.848Z,99.73
2019-04-05T10:18:26.336Z,101.70
2019-04-05T10:20:54.759Z,98.63
2019-04-05T10:23:23.227Z,91.90
2019-04-05T10:25:51.671Z,88.00
2019-04-05T10:28:20.105Z,91.37
2019-04-05T10:30:48.582Z,95.37
2019-04-05T10:33:17.035Z,87.40
2019-04-05T10:35:45.523Z,93.43
2019-04-05T10:38:13.958Z,101.83
2019-04-05T10:40:42.430Z,105.60
2019-04-05T10:43:11.173Z,93.57
2019-04-05T10:45:39.633Z,98.17
2019-04-05T10:48:08.093Z,99.10
2019-04-05T10:50:36.539Z,94.27
2019-04-05T10:53:05.061Z,103.10
2019-04-05T10:55:33.520Z,105.30
2019-04-05T10:58:02.005Z,100.90
2019-04-05T11:00:30.636Z,101.23
2019-04-05T11:02:59.083Z,108.10
2019-04-05T11:05:27.635Z,107.37
2019-04-05T11:07:56.109Z,87.77
2019-04-05T11:10:24.551Z,95.23
2019-04-05T11:12:53.045Z,85.57
2019-04-05T11:15:21.557Z,96.30
2019-04-05T11:17:50.191Z,86.37
2019-04-05T11:20:22.362Z,81.97
2019-04-05T11:22:50.079Z,78.17
2019-04-05T11:25:20.890Z,78.57
2019-04-05T11:27:49.655Z,67.13
2019-04-05T11:30:23.834Z,67.80
2019-04-05T11:32:52.269Z,60.40
2019-04-05T11:35:20.733Z,58.70
2019-04-05T11:37:50.651Z,54.10
2019-04-05T11:40:19.537Z,49.23
2019-04-05T11:42:49.552Z,56.03
2019-04-05T11:45:18.009Z,51.70
2019-04-05T11:47:47.080Z,57.43
2019-04-05T11:50:15.713Z,56.13
2019-04-05T11:52:44.203Z,66.47
2019-04-05T11:55:12.998Z,56.10
2019-04-05T11:57:42.046Z,57.03
2019-04-05T12:00:14.444Z,60.93
2019-04-05T12:02:44.575Z,60.83
2019-04-05T12:05:14.682Z,60.70
2019-04-05T12:07:43.162Z,60.97
2019-04-05T12:10:12.246Z,56.07
2019-04-05T12:12:40.767Z,62.53
2019-04-05T12:15:09.371Z,60.97
2019-04-05T12:17:37.908Z,54.23
2019-04-05T12:20:07.632Z,53.80
2019-04-05T12:22:36.064Z,54.10
2019-04-05T12:25:07.322Z,54.73
2019-04-05T12:27:36.229Z,60.87
2019-04-05T12:30:06.559Z,57.30
2019-04-05T12:32:41.080Z,63.47
2019-04-05T12:35:08.485Z,61.60
2019-04-05T12:37:49.626Z,53.57
2019-04-05T12:40:10.247Z,56.80
2019-04-05T12:42:38.273Z,60.63
2019-04-05T12:45:07.871Z,64.10
2019-04-05T12:47:36.429Z,55.87
2019-04-05T12:50:07.400Z,57.70
2019-04-05T12:52:35.968Z,56.73
2019-04-05T12:55:06.038Z,53.80
2019-04-05T12:57:34.548Z,53.43
2019-04-05T13:00:04.611Z,55.80
2019-04-05T13:02:34.079Z,54.37
2019-04-05T13:05:03.105Z,54.17
2019-04-05T13:07:34.791Z,54.00
2019-04-05T13:10:01.763Z,53.33
2019-04-05T13:12:30.250Z,52.33
2019-04-05T13:15:11.168Z,56.33
2019-04-05T13:17:31.055Z,53.90
2019-04-05T13:20:00.921Z,61.10
2019-04-05T13:22:32.203Z,54.03
2019-04-05T13:24:59.603Z,55.60
2019-04-05T13:27:28.092Z,50.50
2019-04-05T13:29:56.553Z,47.20
2019-04-05T13:32:25.151Z,51.17
2019-04-05T13:34:55.813Z,52.07
2019-04-05T13:37:23.886Z,55.60
2019-04-05T13:39:52.334Z,49.33
2019-04-05T13:42:20.789Z,54.20
2019-04-05T13:44:49.267Z,50.70
2019-04-05T13:47:17.764Z,48.77
2019-04-05T13:49:46.214Z,51.97
2019-04-05T13:52:14.654Z,53.43
2019-04-05T13:54:43.153Z,53.03
2019-04-05T13:57:11.718Z,61.60
2019-04-05T13:59:40.194Z,55.83
2019-04-05T14:02:08.657Z,57.37
2019-04-05T14:04:37.218Z,57.97
2019-04-05T14:07:06.309Z,56.43
2019-04-05T14:09:34.783Z,54.03
2019-04-05T14:12:04.058Z,59.10
2019-04-05T14:14:32.506Z,49.97
2019-04-05T14:17:00.994Z,55.93
2019-04-05T14:19:29.491Z,50.40
2019-04-05T14:22:07.777Z,55.33
2019-04-05T14:24:28.128Z,55.53
2019-04-05T14:26:56.673Z,50.17
2019-04-05T14:29:25.114Z,52.03
2019-04-05T14:31:53.593Z,52.30
2019-04-05T14:34:23.700Z,60.27
2019-04-05T14:36:52.444Z,55.60
2019-04-05T14:39:20.989Z,52.87
2019-04-05T14:41:49.433Z,53.80
2019-04-05T14:44:17.901Z,54.93
2019-04-05T14:46:46.348Z,58.73
2019-04-05T14:49:14.825Z,54.07
2019-04-05T14:51:52.405Z,53.67
2019-04-05T14:54:13.466Z,55.83
2019-04-05T14:56:41.921Z,53.13
2019-04-05T14:59:10.373Z,57.47
2019-04-05T15:01:38.918Z,63.37
2019-04-05T15:04:07.441Z,57.13
2019-04-05T15:06:35.944Z,65.13
2019-04-05T15:09:06.392Z,58.90
2019-04-05T15:11:34.877Z,62.60
2019-04-05T15:14:03.875Z,55.17
2019-04-05T15:16:32.335Z,61.63
2019-04-05T15:19:00.797Z,56.67
2019-04-05T15:21:29.281Z,56.60
2019-04-05T15:23:57.754Z,57.10
2019-04-05T15:26:26.239Z,56.40
2019-04-05T15:28:55.704Z,54.33
2019-04-05T15:31:26.502Z,56.93
2019-04-05T15:33:55.591Z,57.73
2019-04-05T15:36:24.646Z,52.20
2019-04-05T15:38:53.146Z,51.47
2019-04-05T15:41:22.012Z,57.73
2019-04-05T15:43:50.562Z,52.37
2019-04-05T15:46:19.183Z,54.90
2019-04-05T15:48:49.654Z,56.00
2019-04-05T15:51:17.875Z,63.73
2019-04-05T15:53:46.342Z,56.93
2019-04-05T15:56:14.824Z,58.67
2019-04-05T15:58:43.273Z,54.50
2019-04-05T16:01:11.948Z,58.57
2019-04-05T16:03:40.419Z,59.13
2019-04-05T16:06:08.932Z,58.87
2019-04-05T16:08:37.545Z,57.87
2019-04-05T16:11:06.079Z,59.37
2019-04-05T16:13:34.531Z,56.93
2019-04-05T16:16:03.003Z,54.20
2019-04-05T16:18:31.456Z,53.90
2019-04-05T16:20:59.981Z,60.30
2019-04-05T16:23:28.478Z,53.30
2019-04-05T16:25:56.943Z,54.47
2019-04-05T16:28:25.433Z,54.33
2019-04-05T16:30:53.900Z,56.63
2019-04-05T16:33:22.376Z,56.33
2019-04-05T16:35:50.936Z,52.87
2019-04-05T16:38:19.440Z,55.10
2019-04-05T16:40:47.886Z,53.40
2019-04-05T16:43:16.362Z,56.47
2019-04-05T16:45:44.825Z,55.10
2019-04-05T16:48:13.323Z,54.73
2019-04-05T16:50:42.423Z,54.43
2019-04-05T16:53:11.023Z,56.30
2019-04-05T16:55:39.498Z,71.53
2019-04-05T16:58:07.973Z,57.50
2019-04-05T17:00:36.451Z,62.57
2019-04-05T17:03:04.903Z,53.90
2019-04-05T17:05:33.347Z,55.93
2019-04-05T17:08:01.830Z,58.73
2019-04-05T17:10:30.293Z,50.20
2019-04-05T17:12:58.793Z,60.30
2019-04-05T17:15:27.256Z,59.33
2019-04-05T17:17:55.749Z,56.97
2019-04-05T17:20:24.239Z,57.07
2019-04-05T17:22:58.497Z,54.83
2019-04-05T17:25:22.897Z,58.70
2019-04-05T17:27:51.346Z,61.43
2019-04-05T17:30:19.816Z,59.77
2019-04-05T17:32:48.936Z,54.83
2019-04-05T17:35:18.178Z,57.10
2019-04-05T17:37:46.816Z,51.63
2019-04-05T17:40:15.610Z,58.03
2019-04-05T17:42:44.108Z,57.13
2019-04-05T17:45:12.822Z,62.47
2019-04-05T17:47:41.287Z,59.00
2019-04-05T17:50:12.808Z,54.53
2019-04-05T17:52:41.323Z,59.70
2019-04-05T17:55:09.899Z,62.07
2019-04-05T17:57:38.321Z,66.70
2019-04-05T18:00:09.565Z,57.40
2019-04-05T18:02:38.110Z,57.60
2019-04-05T18:05:07.492Z,61.30
2019-04-05T18:07:35.961Z,55.57
2019-04-05T18:10:05.772Z,54.17
2019-04-05T18:12:34.269Z,51.40
2019-04-05T18:15:02.743Z,61.30
2019-04-05T18:17:31.333Z,53.10
2019-04-05T18:19:59.775Z,58.07
2019-04-05T18:22:28.604Z,56.37
2019-04-05T18:24:57.049Z,60.13
2019-04-05T18:27:25.570Z,62.90
2019-04-05T18:29:54.069Z,62.37
2019-04-05T18:32:22.650Z,57.03
2019-04-05T18:34:51.095Z,61.10
2019-04-05T18:37:19.545Z,67.53
2019-04-05T18:39:48.054Z,60.13
2019-04-05T18:42:16.642Z,63.37
2019-04-05T18:44:45.304Z,57.73
2019-04-05T18:47:13.771Z,58.77
2019-04-05T18:49:42.264Z,56.93
2019-04-05T18:52:10.706Z,54.00
2019-04-05T18:54:39.142Z,58.63
2019-04-05T18:57:07.638Z,57.00
2019-04-05T18:59:36.082Z,55.37
2019-04-05T19:02:04.599Z,59.17
2019-04-05T19:04:33.091Z,55.83
2019-04-05T19:07:01.523Z,56.60
2019-04-05T19:09:29.976Z,58.83
2019-04-05T19:11:58.452Z,60.73
2019-04-05T19:14:26.896Z,60.93
2019-04-05T19:16:55.365Z,54.87
2019-04-05T19:19:23.844Z,60.27
2019-04-05T19:21:52.346Z,53.30
2019-04-05T19:24:20.777Z,62.67
2019-04-05T19:26:49.222Z,56.73
2019-04-05T19:29:17.705Z,60.50
2019-04-05T19:49:17.521Z,57.77
2019-04-05T19:51:45.983Z,56.97
2019-04-05T19:54:14.479Z,56.20
2019-04-05T19:56:42.937Z,55.87
2019-04-05T19:59:11.407Z,61.03
2019-04-05T20:01:39.889Z,60.13
2019-04-05T20:04:08.338Z,50.43
2019-04-05T20:06:36.784Z,56.80
2019-04-05T20:09:07.309Z,55.80
2019-04-05T20:11:35.758Z,61.57
2019-04-05T20:14:04.300Z,57.43
2019-04-05T20:16:32.787Z,58.57
2019-04-05T20:19:01.183Z,56.93
2019-04-05T20:21:29.663Z,62.43
2019-04-05T20:23:58.132Z,62.77
2019-04-05T20:26:26.624Z,60.83
2019-04-05T20:28:55.069Z,66.40
2019-04-05T20:31:23.508Z,56.13
2019-04-05T20:33:52.026Z,58.87
2019-04-05T20:36:20.469Z,56.47
2019-04-05T20:38:48.928Z,57.20
2019-04-05T20:41:17.371Z,60.30
2019-04-05T20:43:45.852Z,87.90
2019-04-05T20:46:14.295Z,63.27
2019-04-05T20:48:42.757Z,62.53
2019-04-05T20:51:11.230Z,65.00
2019-04-05T20:53:39.671Z,53.20
2019-04-05T20:56:08.157Z,60.27
2019-04-05T20:58:36.626Z,57.27
2019-04-05T21:01:05.090Z,56.30
2019-04-05T21:03:33.560Z,60.93
2019-04-05T21:06:02.047Z,61.17
2019-04-05T21:08:30.479Z,56.40
2019-04-05T21:10:58.963Z,54.97
2019-04-05T21:13:27.452Z,62.07
2019-04-05T21:15:55.901Z,55.13
2019-04-05T21:18:24.378Z,52.53
2019-04-05T21:20:52.941Z,53.30
2019-04-05T21:23:21.368Z,54.53
2019-04-05T21:25:49.868Z,53.70
2019-04-05T21:28:18.353Z,58.47
2019-04-05T21:30:46.784Z,50.93
2019-04-05T21:33:15.251Z,50.67
2019-04-05T21:35:45.788Z,56.57
2019-04-05T21:38:13.845Z,61.07
2019-04-05T21:40:42.330Z,58.43
2019-04-05T21:43:10.770Z,58.20
2019-04-05T21:45:39.222Z,55.07
2019-04-05T21:48:07.723Z,58.57
2019-04-05T21:50:36.167Z,51.67
2019-04-05T21:53:04.609Z,55.27
2019-04-05T21:55:33.089Z,59.20
2019-04-05T21:58:01.554Z,58.27
2019-04-05T22:00:51.435Z,59.80
2019-04-05T22:03:19.864Z,62.73
2019-04-05T22:05:48.334Z,56.30
2019-04-05T22:08:16.836Z,60.93
2019-04-05T22:10:45.238Z,64.33
2019-04-05T22:13:13.709Z,60.30
2019-04-05T22:15:42.156Z,74.83
2019-04-05T22:18:10.610Z,64.17
2019-04-05T22:20:39.064Z,61.73
2019-04-05T22:23:07.525Z,61.77
2019-04-05T22:25:35.969Z,63.33
2019-04-05T22:28:04.448Z,65.53
2019-04-05T22:30:32.906Z,63.00
2019-04-05T22:33:01.370Z,57.93
2019-04-05T22:35:29.805Z,59.30
2019-04-05T22:37:58.244Z,65.40
2019-04-05T22:40:26.710Z,66.83
2019-04-05T22:42:55.189Z,63.13
2019-04-05T22:45:23.630Z,57.43
2019-04-05T22:47:52.074Z,59.93
2019-04-05T22:50:20.540Z,61.60
2019-04-05T22:52:49.016Z,58.97
2019-04-05T22:55:17.464Z,57.77
2019-04-05T22:57:45.973Z,56.57
2019-04-05T23:00:14.564Z,58.33
2019-04-05T23:02:43.034Z,58.97
2019-04-05T23:05:11.783Z,60.60
2019-04-05T23:07:40.260Z,67.93
2019-04-05T23:10:10.094Z,69.50
2019-04-05T23:12:38.530Z,56.53
2019-04-05T23:15:08.840Z,54.37
2019-04-05T23:17:37.318Z,60.50
2019-04-05T23:20:06.662Z,63.10
2019-04-05T23:22:35.137Z,57.83
2019-04-05T23:25:04.761Z,58.37
2019-04-05T23:27:33.244Z,57.47
2019-04-05T23:30:01.762Z,56.00
2019-04-05T23:32:30.222Z,58.53
2019-04-05T23:34:58.724Z,62.30
2019-04-05T23:37:27.157Z,62.23
2019-04-05T23:39:55.621Z,69.23
2019-04-05T23:42:24.096Z,57.57
2019-04-05T23:44:52.534Z,61.63
2019-04-05T23:47:21.173Z,59.70
2019-04-05T23:49:49.633Z,55.23
2019-04-05T23:52:18.138Z,59.67
2019-04-05T23:54:46.557Z,51.13
2019-04-05T23:57:15.032Z,55.73
2019-04-05T23:59:43.501Z,55.40
